Jump to content

  •  

DELTA AIRLINES FLIGHT DL1550 FLOWN ON 11-09-2017 BY CAPTAIN JIM BOERMAN

Pilot StatsCaptain Jim Boerman (LDP136) • 4,686.4 total hours • 1,423 total flights [View Logbook]
FLIGHT DETAILS
StatusReceived and approved on 2017-11-09 at 11:11:08
Origin AirportNewark Liberty Intl (KEWR) • Newark, New Jersey, United States (18 feet MSL)
Filed Flight PlanKEWR BWZ J584 CRL KDTW
Destination AirportDetroit Metro Wayne Co (KDTW) • Detroit, Michigan, United States (646 feet MSL)
Alternate AirportKalamazoo-Battle Creek Intl (KAZO) • Kalamazoo, Michigan, United States (874 feet MSL)
AirlineDelta Airlines
AircraftBoeing 737-700 | Winglets (73W / B737-700)
FS Aircraft UsedBoeing 737-700NGX DELTA N301DQ Winglets
Cruising AltitudeFL360
Distance Flown423 nautical miles
Passengers Onboard75 passengers (55.15% full)
DEPARTURE DETAILS
Time Out09:28:24
Taxi Data131,410 lbs total with 15,635 lbs of fuel onboard
Takeoff Data09:41:14 (13 minutes after leaving gate/ramp) • 130,812 lbs total • 9° pitch at 152 knots
Departure METARKEWR 091351Z 02007KT 10SM BKN042 BKN130 06/03 A3023 RMK AO2 SLP235 T00610033
ARRIVAL DETAILS
Landing Data11:11:33 • 123,191 lbs total • 5° pitch doing 119 knots at a rate of -92.27 feet/minute with 6,928 lbs of fuel onboard
Time In11:24:10 (13 minutes after landing)
Ramp Weight122,703 lbs total
Total Fuel Used8,707 lbs
Total Block Time01:55:38 (1.9 hours) while 25 minutes were spent on the ground
Arrival METARKDTW 091553Z 22016G21KT 10SM BKN100 07/M01 A3004 RMK AO2 SLP177 T00721011
MISCELLANEOUS DETAILS
LiveDISPATCH Version4.8.3.1
FS Version
FSUIPC Version5.12
OS VersionWindows 7 32-bit
Screen Resolution1920 x 1080
Pilot's CommentsNo Comments Reported
FLIGHT MAP